sensor_id;sensor_type;location;lat;lon;timestamp;P1;durP1;ratioP1;P2;durP2;ratioP2
21741;SDS011;11033;47.490;11.116;2023-05-10T00:01:15;1.73;;;1.33;;
21741;SDS011;11033;47.490;11.116;2023-05-10T00:03:40;3.17;;;1.10;;
21741;SDS011;11033;47.490;11.116;2023-05-10T00:06:06;1.60;;;1.23;;
21741;SDS011;11033;47.490;11.116;2023-05-10T00:08:31;1.52;;;0.90;;
21741;SDS011;11033;47.490;11.116;2023-05-10T00:10:57;2.47;;;0.90;;
21741;SDS011;11033;47.490;11.116;2023-05-10T00:13:22;3.15;;;1.02;;
21741;SDS011;11033;47.490;11.116;2023-05-10T00:15:47;4.07;;;1.00;;
21741;SDS011;11033;47.490;11.116;2023-05-10T00:18:12;2.50;;;0.93;;
21741;SDS011;11033;47.490;11.116;2023-05-10T00:20:38;3.50;;;1.30;;
21741;SDS011;11033;47.490;11.116;2023-05-10T00:23:03;1.45;;;1.10;;
21741;SDS011;11033;47.490;11.116;2023-05-10T00:25:28;1.30;;;1.15;;
21741;SDS011;11033;47.490;11.116;2023-05-10T00:27:54;2.55;;;1.25;;
21741;SDS011;11033;47.490;11.116;2023-05-10T00:30:22;3.80;;;1.00;;
21741;SDS011;11033;47.490;11.116;2023-05-10T00:32:47;3.55;;;1.10;;
21741;SDS011;11033;47.490;11.116;2023-05-10T00:35:14;1.85;;;1.00;;
21741;SDS011;11033;47.490;11.116;2023-05-10T00:37:40;1.17;;;1.08;;
21741;SDS011;11033;47.490;11.116;2023-05-10T00:40:05;2.03;;;1.08;;
21741;SDS011;11033;47.490;11.116;2023-05-10T00:42:31;3.05;;;1.27;;
21741;SDS011;11033;47.490;11.116;2023-05-10T00:44:57;3.25;;;1.10;;
21741;SDS011;11033;47.490;11.116;2023-05-10T00:47:22;1.67;;;1.25;;
21741;SDS011;11033;47.490;11.116;2023-05-10T00:49:48;2.08;;;1.33;;
21741;SDS011;11033;47.490;11.116;2023-05-10T00:52:14;3.47;;;1.20;;
21741;SDS011;11033;47.490;11.116;2023-05-10T00:54:40;1.80;;;1.40;;
21741;SDS011;11033;47.490;11.116;2023-05-10T00:57:05;2.88;;;1.40;;
21741;SDS011;11033;47.490;11.116;2023-05-10T00:59:30;3.95;;;1.40;;
21741;SDS011;11033;47.490;11.116;2023-05-10T01:01:56;2.95;;;1.23;;
21741;SDS011;11033;47.490;11.116;2023-05-10T01:04:22;2.15;;;1.40;;
21741;SDS011;11033;47.490;11.116;2023-05-10T01:06:50;1.73;;;1.05;;
21741;SDS011;11033;47.490;11.116;2023-05-10T01:09:16;1.33;;;1.10;;
21741;SDS011;11033;47.490;11.116;2023-05-10T01:11:42;2.45;;;1.30;;
21741;SDS011;11033;47.490;11.116;2023-05-10T01:14:08;3.45;;;1.48;;
21741;SDS011;11033;47.490;11.116;2023-05-10T01:16:37;3.15;;;1.60;;
21741;SDS011;11033;47.490;11.116;2023-05-10T01:19:04;4.15;;;1.40;;
21741;SDS011;11033;47.490;11.116;2023-05-10T01:30:01;3.67;;;1.45;;
21741;SDS011;11033;47.490;11.116;2023-05-10T01:35:15;3.60;;;1.02;;
21741;SDS011;11033;47.490;11.116;2023-05-10T01:37:52;2.75;;;1.23;;
21741;SDS011;11033;47.490;11.116;2023-05-10T01:40:30;1.27;;;0.90;;
21741;SDS011;11033;47.490;11.116;2023-05-10T01:43:11;4.88;;;1.00;;
21741;SDS011;11033;47.490;11.116;2023-05-10T01:48:20;1.83;;;1.00;;
21741;SDS011;11033;47.490;11.116;2023-05-10T01:50:47;2.45;;;0.88;;
21741;SDS011;11033;47.490;11.116;2023-05-10T01:53:17;1.52;;;0.77;;
21741;SDS011;11033;47.490;11.116;2023-05-10T01:55:46;2.40;;;1.25;;
21741;SDS011;11033;47.490;11.116;2023-05-10T01:58:15;2.05;;;0.88;;
21741;SDS011;11033;47.490;11.116;2023-05-10T02:00:45;2.13;;;1.25;;
21741;SDS011;11033;47.490;11.116;2023-05-10T02:03:12;3.03;;;1.20;;
21741;SDS011;11033;47.490;11.116;2023-05-10T02:05:39;2.80;;;1.10;;
21741;SDS011;11033;47.490;11.116;2023-05-10T02:08:07;5.15;;;1.27;;
21741;SDS011;11033;47.490;11.116;2023-05-10T02:10:34;3.45;;;1.00;;
21741;SDS011;11033;47.490;11.116;2023-05-10T02:13:00;2.53;;;1.20;;
21741;SDS011;11033;47.490;11.116;2023-05-10T02:15:27;4.38;;;1.00;;
21741;SDS011;11033;47.490;11.116;2023-05-10T02:17:54;1.65;;;1.00;;
21741;SDS011;11033;47.490;11.116;2023-05-10T02:20:21;0.88;;;0.88;;
21741;SDS011;11033;47.490;11.116;2023-05-10T02:22:49;4.65;;;1.27;;
21741;SDS011;11033;47.490;11.116;2023-05-10T02:25:17;4.10;;;1.10;;
21741;SDS011;11033;47.490;11.116;2023-05-10T02:27:44;2.67;;;0.80;;
21741;SDS011;11033;47.490;11.116;2023-05-10T02:30:10;1.48;;;0.88;;
21741;SDS011;11033;47.490;11.116;2023-05-10T02:32:36;3.70;;;1.10;;
21741;SDS011;11033;47.490;11.116;2023-05-10T02:35:03;2.25;;;1.00;;
21741;SDS011;11033;47.490;11.116;2023-05-10T02:37:29;2.00;;;1.08;;
21741;SDS011;11033;47.490;11.116;2023-05-10T02:39:55;2.40;;;1.25;;
21741;SDS011;11033;47.490;11.116;2023-05-10T02:42:23;3.25;;;1.00;;
21741;SDS011;11033;47.490;11.116;2023-05-10T02:44:53;1.23;;;1.02;;
21741;SDS011;11033;47.490;11.116;2023-05-10T02:47:21;1.90;;;1.10;;
21741;SDS011;11033;47.490;11.116;2023-05-10T02:49:47;5.88;;;1.05;;
21741;SDS011;11033;47.490;11.116;2023-05-10T02:52:12;2.08;;;0.90;;
21741;SDS011;11033;47.490;11.116;2023-05-10T02:54:44;3.47;;;1.20;;
21741;SDS011;11033;47.490;11.116;2023-05-10T02:57:12;5.72;;;1.05;;
21741;SDS011;11033;47.490;11.116;2023-05-10T02:59:44;1.30;;;1.05;;
21741;SDS011;11033;47.490;11.116;2023-05-10T03:02:10;0.55;;;0.55;;
21741;SDS011;11033;47.490;11.116;2023-05-10T03:04:37;0.73;;;0.73;;
21741;SDS011;11033;47.490;11.116;2023-05-10T03:07:02;0.93;;;0.70;;
21741;SDS011;11033;47.490;11.116;2023-05-10T03:09:28;1.60;;;0.98;;
21741;SDS011;11033;47.490;11.116;2023-05-10T03:11:56;1.58;;;0.80;;
21741;SDS011;11033;47.490;11.116;2023-05-10T03:21:12;3.53;;;0.95;;
21741;SDS011;11033;47.490;11.116;2023-05-10T03:23:43;3.05;;;0.80;;
21741;SDS011;11033;47.490;11.116;2023-05-10T03:28:42;1.55;;;0.82;;
21741;SDS011;11033;47.490;11.116;2023-05-10T03:31:07;3.35;;;1.38;;
21741;SDS011;11033;47.490;11.116;2023-05-10T03:33:33;3.80;;;1.13;;
21741;SDS011;11033;47.490;11.116;2023-05-10T03:35:58;1.67;;;0.90;;
21741;SDS011;11033;47.490;11.116;2023-05-10T03:38:24;2.00;;;0.93;;
21741;SDS011;11033;47.490;11.116;2023-05-10T03:40:49;4.03;;;0.80;;
21741;SDS011;11033;47.490;11.116;2023-05-10T03:43:15;1.17;;;0.87;;
21741;SDS011;11033;47.490;11.116;2023-05-10T03:45:40;1.90;;;1.03;;
21741;SDS011;11033;47.490;11.116;2023-05-10T03:48:05;1.70;;;0.90;;
21741;SDS011;11033;47.490;11.116;2023-05-10T03:50:30;2.10;;;0.93;;
21741;SDS011;11033;47.490;11.116;2023-05-10T03:52:56;3.22;;;0.93;;
21741;SDS011;11033;47.490;11.116;2023-05-10T03:55:22;1.30;;;0.98;;
21741;SDS011;11033;47.490;11.116;2023-05-10T03:57:47;1.63;;;0.98;;
21741;SDS011;11033;47.490;11.116;2023-05-10T04:00:14;3.65;;;1.20;;
21741;SDS011;11033;47.490;11.116;2023-05-10T04:02:40;3.78;;;0.82;;
21741;SDS011;11033;47.490;11.116;2023-05-10T04:05:05;12.95;;;1.50;;
21741;SDS011;11033;47.490;11.116;2023-05-10T04:07:31;3.72;;;0.88;;
21741;SDS011;11033;47.490;11.116;2023-05-10T04:09:56;1.57;;;1.00;;
21741;SDS011;11033;47.490;11.116;2023-05-10T04:12:22;2.28;;;1.05;;
21741;SDS011;11033;47.490;11.116;2023-05-10T04:14:47;1.67;;;1.10;;
21741;SDS011;11033;47.490;11.116;2023-05-10T04:17:12;2.13;;;1.17;;
21741;SDS011;11033;47.490;11.116;2023-05-10T04:19:38;2.15;;;1.45;;
21741;SDS011;11033;47.490;11.116;2023-05-10T04:22:03;2.40;;;1.05;;
21741;SDS011;11033;47.490;11.116;2023-05-10T04:24:28;3.63;;;1.70;;
21741;SDS011;11033;47.490;11.116;2023-05-10T04:26:54;2.78;;;1.40;;
21741;SDS011;11033;47.490;11.116;2023-05-10T04:29:20;1.75;;;1.40;;
21741;SDS011;11033;47.490;11.116;2023-05-10T04:31:45;2.55;;;1.60;;
21741;SDS011;11033;47.490;11.116;2023-05-10T04:34:10;1.80;;;1.70;;
21741;SDS011;11033;47.490;11.116;2023-05-10T04:36:35;2.92;;;1.83;;
21741;SDS011;11033;47.490;11.116;2023-05-10T04:39:02;2.85;;;2.03;;
21741;SDS011;11033;47.490;11.116;2023-05-10T04:41:27;3.95;;;2.22;;
21741;SDS011;11033;47.490;11.116;2023-05-10T04:43:53;1.90;;;1.80;;
21741;SDS011;11033;47.490;11.116;2023-05-10T04:46:19;3.40;;;1.85;;
21741;SDS011;11033;47.490;11.116;2023-05-10T04:48:44;3.47;;;2.23;;
21741;SDS011;11033;47.490;11.116;2023-05-10T04:51:09;2.88;;;1.80;;
21741;SDS011;11033;47.490;11.116;2023-05-10T04:53:34;4.07;;;2.00;;
21741;SDS011;11033;47.490;11.116;2023-05-10T04:56:00;4.82;;;2.00;;
21741;SDS011;11033;47.490;11.116;2023-05-10T04:58:26;3.38;;;2.28;;
21741;SDS011;11033;47.490;11.116;2023-05-10T05:00:51;7.38;;;2.70;;
21741;SDS011;11033;47.490;11.116;2023-05-10T05:03:16;1.88;;;1.73;;
21741;SDS011;11033;47.490;11.116;2023-05-10T05:05:42;2.75;;;2.10;;
21741;SDS011;11033;47.490;11.116;2023-05-10T05:08:08;2.28;;;1.80;;
21741;SDS011;11033;47.490;11.116;2023-05-10T05:10:33;7.03;;;2.08;;
21741;SDS011;11033;47.490;11.116;2023-05-10T05:12:59;2.17;;;1.97;;
21741;SDS011;11033;47.490;11.116;2023-05-10T05:15:24;2.88;;;1.90;;
21741;SDS011;11033;47.490;11.116;2023-05-10T05:17:49;2.85;;;2.10;;
21741;SDS011;11033;47.490;11.116;2023-05-10T05:20:15;2.83;;;1.87;;
21741;SDS011;11033;47.490;11.116;2023-05-10T05:22:40;4.78;;;1.98;;
21741;SDS011;11033;47.490;11.116;2023-05-10T05:25:06;2.17;;;2.00;;
21741;SDS011;11033;47.490;11.116;2023-05-10T05:27:31;3.28;;;2.03;;
21741;SDS011;11033;47.490;11.116;2023-05-10T05:29:57;5.25;;;1.80;;
21741;SDS011;11033;47.490;11.116;2023-05-10T05:32:22;1.90;;;1.70;;
21741;SDS011;11033;47.490;11.116;2023-05-10T05:34:48;3.05;;;2.13;;
21741;SDS011;11033;47.490;11.116;2023-05-10T05:37:14;2.67;;;2.47;;
21741;SDS011;11033;47.490;11.116;2023-05-10T05:39:40;2.88;;;2.58;;
21741;SDS011;11033;47.490;11.116;2023-05-10T05:42:06;2.47;;;2.28;;
21741;SDS011;11033;47.490;11.116;2023-05-10T05:44:31;4.77;;;2.10;;
21741;SDS011;11033;47.490;11.116;2023-05-10T05:46:56;3.10;;;2.90;;
21741;SDS011;11033;47.490;11.116;2023-05-10T05:49:22;2.80;;;2.60;;
21741;SDS011;11033;47.490;11.116;2023-05-10T05:51:47;4.00;;;2.60;;
21741;SDS011;11033;47.490;11.116;2023-05-10T05:54:14;2.88;;;2.67;;
21741;SDS011;11033;47.490;11.116;2023-05-10T05:56:39;2.95;;;2.75;;
21741;SDS011;11033;47.490;11.116;2023-05-10T05:59:05;2.60;;;2.45;;
21741;SDS011;11033;47.490;11.116;2023-05-10T06:01:30;2.60;;;2.40;;
21741;SDS011;11033;47.490;11.116;2023-05-10T06:03:56;5.18;;;2.33;;
21741;SDS011;11033;47.490;11.116;2023-05-10T06:06:21;1.73;;;1.63;;
21741;SDS011;11033;47.490;11.116;2023-05-10T06:08:46;5.47;;;1.35;;
21741;SDS011;11033;47.490;11.116;2023-05-10T06:11:12;5.00;;;1.73;;
21741;SDS011;11033;47.490;11.116;2023-05-10T06:13:37;1.30;;;1.20;;
21741;SDS011;11033;47.490;11.116;2023-05-10T06:16:02;2.13;;;1.50;;
21741;SDS011;11033;47.490;11.116;2023-05-10T06:18:28;2.35;;;1.50;;
21741;SDS011;11033;47.490;11.116;2023-05-10T06:20:53;4.70;;;1.60;;
21741;SDS011;11033;47.490;11.116;2023-05-10T06:23:18;4.43;;;1.30;;
21741;SDS011;11033;47.490;11.116;2023-05-10T06:25:44;5.60;;;2.22;;
21741;SDS011;11033;47.490;11.116;2023-05-10T06:28:09;4.82;;;2.38;;
21741;SDS011;11033;47.490;11.116;2023-05-10T06:30:35;2.90;;;2.20;;
21741;SDS011;11033;47.490;11.116;2023-05-10T06:33:01;4.32;;;1.88;;
21741;SDS011;11033;47.490;11.116;2023-05-10T06:35:27;2.30;;;1.58;;
21741;SDS011;11033;47.490;11.116;2023-05-10T06:37:53;1.52;;;1.40;;
21741;SDS011;11033;47.490;11.116;2023-05-10T06:40:18;2.55;;;1.30;;
21741;SDS011;11033;47.490;11.116;2023-05-10T06:42:44;1.63;;;1.10;;
21741;SDS011;11033;47.490;11.116;2023-05-10T06:45:10;0.95;;;0.95;;
21741;SDS011;11033;47.490;11.116;2023-05-10T06:47:35;1.20;;;1.10;;
21741;SDS011;11033;47.490;11.116;2023-05-10T06:50:01;2.83;;;1.00;;
21741;SDS011;11033;47.490;11.116;2023-05-10T06:52:26;2.40;;;1.20;;
21741;SDS011;11033;47.490;11.116;2023-05-10T06:54:51;1.75;;;1.13;;
21741;SDS011;11033;47.490;11.116;2023-05-10T06:57:17;2.97;;;1.40;;
21741;SDS011;11033;47.490;11.116;2023-05-10T06:59:42;3.10;;;1.60;;
21741;SDS011;11033;47.490;11.116;2023-05-10T07:02:08;4.60;;;1.52;;
21741;SDS011;11033;47.490;11.116;2023-05-10T07:04:33;3.92;;;1.90;;
21741;SDS011;11033;47.490;11.116;2023-05-10T07:06:59;1.55;;;1.40;;
21741;SDS011;11033;47.490;11.116;2023-05-10T07:09:24;3.50;;;1.77;;
21741;SDS011;11033;47.490;11.116;2023-05-10T07:11:49;1.90;;;1.10;;
21741;SDS011;11033;47.490;11.116;2023-05-10T07:14:15;2.13;;;1.50;;
21741;SDS011;11033;47.490;11.116;2023-05-10T07:16:40;4.22;;;1.30;;
21741;SDS011;11033;47.490;11.116;2023-05-10T07:19:05;1.67;;;1.10;;
21741;SDS011;11033;47.490;11.116;2023-05-10T07:21:30;1.42;;;1.00;;
21741;SDS011;11033;47.490;11.116;2023-05-10T07:23:56;2.85;;;1.23;;
21741;SDS011;11033;47.490;11.116;2023-05-10T07:26:21;1.88;;;1.08;;
21741;SDS011;11033;47.490;11.116;2023-05-10T07:28:47;2.90;;;1.30;;
21741;SDS011;11033;47.490;11.116;2023-05-10T07:31:12;4.57;;;1.60;;
21741;SDS011;11033;47.490;11.116;2023-05-10T07:33:37;2.25;;;0.95;;
21741;SDS011;11033;47.490;11.116;2023-05-10T07:36:03;7.10;;;5.57;;
21741;SDS011;11033;47.490;11.116;2023-05-10T07:38:28;2.88;;;1.55;;
21741;SDS011;11033;47.490;11.116;2023-05-10T07:40:53;6.45;;;6.03;;
21741;SDS011;11033;47.490;11.116;2023-05-10T07:43:19;3.90;;;3.57;;
21741;SDS011;11033;47.490;11.116;2023-05-10T07:45:44;3.88;;;3.58;;
21741;SDS011;11033;47.490;11.116;2023-05-10T07:48:09;4.50;;;4.20;;
21741;SDS011;11033;47.490;11.116;2023-05-10T07:50:34;4.10;;;3.90;;
21741;SDS011;11033;47.490;11.116;2023-05-10T07:53:00;4.53;;;4.30;;
21741;SDS011;11033;47.490;11.116;2023-05-10T07:55:25;4.93;;;4.53;;
21741;SDS011;11033;47.490;11.116;2023-05-10T07:57:51;4.97;;;4.55;;
21741;SDS011;11033;47.490;11.116;2023-05-10T08:00:16;4.83;;;4.63;;
21741;SDS011;11033;47.490;11.116;2023-05-10T08:02:43;4.88;;;4.57;;
21741;SDS011;11033;47.490;11.116;2023-05-10T08:05:09;4.50;;;4.20;;
21741;SDS011;11033;47.490;11.116;2023-05-10T08:07:34;4.72;;;4.35;;
21741;SDS011;11033;47.490;11.116;2023-05-10T08:10:00;4.43;;;4.03;;
21741;SDS011;11033;47.490;11.116;2023-05-10T08:12:26;4.38;;;4.00;;
21741;SDS011;11033;47.490;11.116;2023-05-10T08:14:51;4.60;;;4.20;;
21741;SDS011;11033;47.490;11.116;2023-05-10T08:17:16;4.80;;;4.40;;
21741;SDS011;11033;47.490;11.116;2023-05-10T08:19:41;4.10;;;3.80;;
21741;SDS011;11033;47.490;11.116;2023-05-10T08:22:07;5.10;;;4.80;;
21741;SDS011;11033;47.490;11.116;2023-05-10T08:24:32;4.60;;;4.40;;
21741;SDS011;11033;47.490;11.116;2023-05-10T08:26:59;5.00;;;4.60;;
21741;SDS011;11033;47.490;11.116;2023-05-10T08:29:24;5.05;;;4.80;;
21741;SDS011;11033;47.490;11.116;2023-05-10T08:31:50;4.60;;;4.40;;
21741;SDS011;11033;47.490;11.116;2023-05-10T08:34:15;5.03;;;4.80;;
21741;SDS011;11033;47.490;11.116;2023-05-10T08:36:40;4.70;;;4.50;;
21741;SDS011;11033;47.490;11.116;2023-05-10T08:39:06;4.50;;;4.30;;
21741;SDS011;11033;47.490;11.116;2023-05-10T08:41:31;4.93;;;4.72;;
21741;SDS011;11033;47.490;11.116;2023-05-10T08:43:58;5.50;;;5.00;;
21741;SDS011;11033;47.490;11.116;2023-05-10T08:46:24;4.93;;;4.63;;
21741;SDS011;11033;47.490;11.116;2023-05-10T08:48:51;4.63;;;4.43;;
21741;SDS011;11033;47.490;11.116;2023-05-10T08:51:19;5.32;;;4.93;;
21741;SDS011;11033;47.490;11.116;2023-05-10T08:53:48;5.28;;;4.68;;
21741;SDS011;11033;47.490;11.116;2023-05-10T08:56:15;5.50;;;5.20;;
21741;SDS011;11033;47.490;11.116;2023-05-10T08:58:42;4.80;;;4.50;;
21741;SDS011;11033;47.490;11.116;2023-05-10T09:01:07;5.38;;;5.07;;
21741;SDS011;11033;47.490;11.116;2023-05-10T09:03:33;5.10;;;4.80;;
21741;SDS011;11033;47.490;11.116;2023-05-10T09:06:00;5.45;;;5.15;;
21741;SDS011;11033;47.490;11.116;2023-05-10T09:08:25;5.65;;;5.32;;
21741;SDS011;11033;47.490;11.116;2023-05-10T09:10:51;6.47;;;6.07;;
21741;SDS011;11033;47.490;11.116;2023-05-10T09:13:17;7.47;;;6.97;;
21741;SDS011;11033;47.490;11.116;2023-05-10T09:15:43;6.20;;;5.80;;
21741;SDS011;11033;47.490;11.116;2023-05-10T09:18:09;6.15;;;5.30;;
21741;SDS011;11033;47.490;11.116;2023-05-10T09:20:35;5.93;;;5.47;;
21741;SDS011;11033;47.490;11.116;2023-05-10T09:23:00;5.68;;;5.18;;
21741;SDS011;11033;47.490;11.116;2023-05-10T09:25:25;8.68;;;6.32;;
21741;SDS011;11033;47.490;11.116;2023-05-10T09:27:51;7.50;;;5.40;;
21741;SDS011;11033;47.490;11.116;2023-05-10T09:30:29;13.90;;;12.80;;
21741;SDS011;11033;47.490;11.116;2023-05-10T09:32:56;9.65;;;4.43;;
21741;SDS011;11033;47.490;11.116;2023-05-10T09:35:23;8.32;;;5.05;;
21741;SDS011;11033;47.490;11.116;2023-05-10T09:37:51;8.65;;;4.18;;
21741;SDS011;11033;47.490;11.116;2023-05-10T09:40:19;5.00;;;3.92;;
21741;SDS011;11033;47.490;11.116;2023-05-10T09:45:32;4.30;;;4.10;;
21741;SDS011;11033;47.490;11.116;2023-05-10T09:47:59;5.22;;;4.47;;
21741;SDS011;11033;47.490;11.116;2023-05-10T09:50:26;3.95;;;3.75;;
21741;SDS011;11033;47.490;11.116;2023-05-10T09:52:57;4.95;;;4.60;;
21741;SDS011;11033;47.490;11.116;2023-05-10T09:55:24;4.40;;;4.10;;
21741;SDS011;11033;47.490;11.116;2023-05-10T09:57:58;4.20;;;3.90;;
21741;SDS011;11033;47.490;11.116;2023-05-10T10:00:25;5.43;;;4.10;;
21741;SDS011;11033;47.490;11.116;2023-05-10T10:02:58;3.83;;;3.63;;
21741;SDS011;11033;47.490;11.116;2023-05-10T10:05:28;4.32;;;4.00;;
21741;SDS011;11033;47.490;11.116;2023-05-10T10:07:57;4.13;;;3.92;;
21741;SDS011;11033;47.490;11.116;2023-05-10T10:10:26;5.55;;;4.88;;
21741;SDS011;11033;47.490;11.116;2023-05-10T10:12:53;5.22;;;5.03;;
21741;SDS011;11033;47.490;11.116;2023-05-10T10:15:20;5.00;;;4.80;;
21741;SDS011;11033;47.490;11.116;2023-05-10T10:17:45;5.25;;;4.90;;
21741;SDS011;11033;47.490;11.116;2023-05-10T10:20:12;5.65;;;5.43;;
21741;SDS011;11033;47.490;11.116;2023-05-10T10:22:37;5.60;;;5.13;;
21741;SDS011;11033;47.490;11.116;2023-05-10T10:25:03;5.85;;;5.55;;
21741;SDS011;11033;47.490;11.116;2023-05-10T10:33:24;4.65;;;4.45;;
21741;SDS011;11033;47.490;11.116;2023-05-10T10:35:58;5.18;;;4.97;;
21741;SDS011;11033;47.490;11.116;2023-05-10T10:38:24;6.80;;;6.40;;
21741;SDS011;11033;47.490;11.116;2023-05-10T10:41:02;5.97;;;5.57;;
21741;SDS011;11033;47.490;11.116;2023-05-10T10:43:34;6.38;;;5.88;;
21741;SDS011;11033;47.490;11.116;2023-05-10T10:46:12;5.88;;;5.57;;
21741;SDS011;11033;47.490;11.116;2023-05-10T10:48:46;5.95;;;5.60;;
21741;SDS011;11033;47.490;11.116;2023-05-10T10:51:13;7.53;;;6.90;;
21741;SDS011;11033;47.490;11.116;2023-05-10T10:53:40;5.82;;;5.43;;
21741;SDS011;11033;47.490;11.116;2023-05-10T10:56:09;5.80;;;5.40;;
21741;SDS011;11033;47.490;11.116;2023-05-10T10:58:37;6.63;;;6.20;;
21741;SDS011;11033;47.490;11.116;2023-05-10T11:01:08;5.68;;;5.38;;
21741;SDS011;11033;47.490;11.116;2023-05-10T11:03:37;6.30;;;5.60;;
21741;SDS011;11033;47.490;11.116;2023-05-10T11:06:03;5.50;;;5.10;;
21741;SDS011;11033;47.490;11.116;2023-05-10T11:08:29;6.03;;;5.47;;
21741;SDS011;11033;47.490;11.116;2023-05-10T11:21:27;6.47;;;5.05;;
21741;SDS011;11033;47.490;11.116;2023-05-10T11:23:53;9.52;;;4.57;;
21741;SDS011;11033;47.490;11.116;2023-05-10T11:26:29;5.13;;;4.57;;
21741;SDS011;11033;47.490;11.116;2023-05-10T11:28:56;4.85;;;4.50;;
21741;SDS011;11033;47.490;11.116;2023-05-10T11:31:24;6.10;;;4.57;;
21741;SDS011;11033;47.490;11.116;2023-05-10T11:33:52;5.22;;;5.03;;
21741;SDS011;11033;47.490;11.116;2023-05-10T11:36:20;4.80;;;4.60;;
21741;SDS011;11033;47.490;11.116;2023-05-10T11:38:46;5.13;;;4.82;;
21741;SDS011;11033;47.490;11.116;2023-05-10T11:41:13;4.93;;;4.72;;
21741;SDS011;11033;47.490;11.116;2023-05-10T11:43:39;6.30;;;5.97;;
21741;SDS011;11033;47.490;11.116;2023-05-10T11:46:08;6.35;;;6.05;;
21741;SDS011;11033;47.490;11.116;2023-05-10T11:51:01;6.55;;;6.15;;
21741;SDS011;11033;47.490;11.116;2023-05-10T11:53:27;6.95;;;6.40;;
21741;SDS011;11033;47.490;11.116;2023-05-10T11:55:54;5.88;;;5.57;;
21741;SDS011;11033;47.490;11.116;2023-05-10T11:58:20;6.20;;;5.80;;
21741;SDS011;11033;47.490;11.116;2023-05-10T12:00:46;5.82;;;5.35;;
21741;SDS011;11033;47.490;11.116;2023-05-10T12:03:12;6.15;;;5.70;;
21741;SDS011;11033;47.490;11.116;2023-05-10T12:05:38;9.02;;;5.80;;
21741;SDS011;11033;47.490;11.116;2023-05-10T12:08:13;5.53;;;5.32;;
21741;SDS011;11033;47.490;11.116;2023-05-10T12:10:39;6.50;;;6.03;;
21741;SDS011;11033;47.490;11.116;2023-05-10T12:13:04;5.93;;;5.55;;
21741;SDS011;11033;47.490;11.116;2023-05-10T12:15:30;6.00;;;5.70;;
21741;SDS011;11033;47.490;11.116;2023-05-10T12:17:55;6.20;;;5.78;;
21741;SDS011;11033;47.490;11.116;2023-05-10T12:20:22;6.80;;;6.32;;
21741;SDS011;11033;47.490;11.116;2023-05-10T12:22:50;5.93;;;5.63;;
21741;SDS011;11033;47.490;11.116;2023-05-10T12:25:17;6.60;;;6.10;;
21741;SDS011;11033;47.490;11.116;2023-05-10T12:27:56;6.78;;;6.38;;
21741;SDS011;11033;47.490;11.116;2023-05-10T12:30:24;6.22;;;5.93;;
21741;SDS011;11033;47.490;11.116;2023-05-10T12:32:51;6.40;;;6.00;;
21741;SDS011;11033;47.490;11.116;2023-05-10T12:35:18;6.88;;;6.28;;
21741;SDS011;11033;47.490;11.116;2023-05-10T12:37:49;8.13;;;7.57;;
21741;SDS011;11033;47.490;11.116;2023-05-10T12:40:15;6.38;;;6.07;;
21741;SDS011;11033;47.490;11.116;2023-05-10T12:42:41;6.50;;;6.10;;
21741;SDS011;11033;47.490;11.116;2023-05-10T12:45:07;6.00;;;5.63;;
21741;SDS011;11033;47.490;11.116;2023-05-10T12:47:33;5.50;;;5.20;;
21741;SDS011;11033;47.490;11.116;2023-05-10T12:49:59;5.65;;;5.35;;
21741;SDS011;11033;47.490;11.116;2023-05-10T12:52:25;5.75;;;5.25;;
21741;SDS011;11033;47.490;11.116;2023-05-10T12:54:51;5.57;;;5.25;;
21741;SDS011;11033;47.490;11.116;2023-05-10T12:57:17;6.43;;;5.80;;
21741;SDS011;11033;47.490;11.116;2023-05-10T12:59:43;7.10;;;6.50;;
21741;SDS011;11033;47.490;11.116;2023-05-10T13:02:08;7.18;;;6.50;;
21741;SDS011;11033;47.490;11.116;2023-05-10T13:04:34;11.98;;;7.55;;
21741;SDS011;11033;47.490;11.116;2023-05-10T13:06:59;9.07;;;7.80;;
21741;SDS011;11033;47.490;11.116;2023-05-10T13:09:25;9.43;;;7.53;;
21741;SDS011;11033;47.490;11.116;2023-05-10T13:11:51;7.30;;;6.60;;
21741;SDS011;11033;47.490;11.116;2023-05-10T13:14:18;6.85;;;6.07;;
21741;SDS011;11033;47.490;11.116;2023-05-10T13:16:45;6.72;;;5.65;;
21741;SDS011;11033;47.490;11.116;2023-05-10T13:19:10;5.30;;;5.00;;
21741;SDS011;11033;47.490;11.116;2023-05-10T13:21:36;5.97;;;5.50;;
21741;SDS011;11033;47.490;11.116;2023-05-10T13:24:01;5.10;;;4.90;;
21741;SDS011;11033;47.490;11.116;2023-05-10T13:26:27;5.65;;;5.22;;
21741;SDS011;11033;47.490;11.116;2023-05-10T13:28:53;5.72;;;5.22;;
21741;SDS011;11033;47.490;11.116;2023-05-10T13:31:20;6.40;;;5.35;;
21741;SDS011;11033;47.490;11.116;2023-05-10T13:33:45;5.80;;;5.50;;
21741;SDS011;11033;47.490;11.116;2023-05-10T13:36:11;6.30;;;5.80;;
21741;SDS011;11033;47.490;11.116;2023-05-10T13:38:36;6.03;;;5.53;;
21741;SDS011;11033;47.490;11.116;2023-05-10T13:41:02;6.18;;;5.72;;
21741;SDS011;11033;47.490;11.116;2023-05-10T13:43:28;6.90;;;6.32;;
21741;SDS011;11033;47.490;11.116;2023-05-10T13:45:54;5.93;;;5.60;;
21741;SDS011;11033;47.490;11.116;2023-05-10T13:48:19;6.55;;;5.95;;
21741;SDS011;11033;47.490;11.116;2023-05-10T13:50:44;5.18;;;4.85;;
21741;SDS011;11033;47.490;11.116;2023-05-10T13:53:11;8.98;;;6.28;;
21741;SDS011;11033;47.490;11.116;2023-05-10T13:55:36;7.07;;;6.38;;
21741;SDS011;11033;47.490;11.116;2023-05-10T13:58:01;5.97;;;5.60;;
21741;SDS011;11033;47.490;11.116;2023-05-10T14:00:26;7.33;;;5.60;;
21741;SDS011;11033;47.490;11.116;2023-05-10T14:02:52;6.05;;;5.55;;
21741;SDS011;11033;47.490;11.116;2023-05-10T14:05:17;5.88;;;5.50;;
21741;SDS011;11033;47.490;11.116;2023-05-10T14:07:42;5.65;;;5.10;;
21741;SDS011;11033;47.490;11.116;2023-05-10T14:10:08;6.13;;;5.50;;
21741;SDS011;11033;47.490;11.116;2023-05-10T14:12:33;9.43;;;5.70;;
21741;SDS011;11033;47.490;11.116;2023-05-10T14:14:58;6.80;;;6.17;;
21741;SDS011;11033;47.490;11.116;2023-05-10T14:17:24;6.47;;;5.88;;
21741;SDS011;11033;47.490;11.116;2023-05-10T14:19:49;6.13;;;5.63;;
21741;SDS011;11033;47.490;11.116;2023-05-10T14:22:14;5.70;;;5.30;;
21741;SDS011;11033;47.490;11.116;2023-05-10T14:24:40;5.95;;;5.45;;
21741;SDS011;11033;47.490;11.116;2023-05-10T14:27:05;6.40;;;5.80;;
21741;SDS011;11033;47.490;11.116;2023-05-10T14:29:30;5.70;;;5.40;;
21741;SDS011;11033;47.490;11.116;2023-05-10T14:31:56;5.30;;;4.90;;
21741;SDS011;11033;47.490;11.116;2023-05-10T14:34:21;8.63;;;5.25;;
21741;SDS011;11033;47.490;11.116;2023-05-10T14:36:46;5.60;;;5.03;;
21741;SDS011;11033;47.490;11.116;2023-05-10T14:39:12;6.70;;;4.90;;
21741;SDS011;11033;47.490;11.116;2023-05-10T14:41:38;5.63;;;5.07;;
21741;SDS011;11033;47.490;11.116;2023-05-10T14:44:05;6.20;;;5.22;;
21741;SDS011;11033;47.490;11.116;2023-05-10T14:46:31;4.95;;;4.22;;
21741;SDS011;11033;47.490;11.116;2023-05-10T14:48:56;9.17;;;4.50;;
21741;SDS011;11033;47.490;11.116;2023-05-10T14:51:21;8.93;;;4.63;;
21741;SDS011;11033;47.490;11.116;2023-05-10T14:53:47;7.37;;;5.13;;
21741;SDS011;11033;47.490;11.116;2023-05-10T14:56:14;5.07;;;4.78;;
21741;SDS011;11033;47.490;11.116;2023-05-10T14:58:39;6.40;;;4.88;;
21741;SDS011;11033;47.490;11.116;2023-05-10T15:01:04;7.20;;;5.10;;
21741;SDS011;11033;47.490;11.116;2023-05-10T15:03:30;4.68;;;4.30;;
21741;SDS011;11033;47.490;11.116;2023-05-10T15:05:55;4.65;;;4.25;;
21741;SDS011;11033;47.490;11.116;2023-05-10T15:08:22;11.60;;;4.57;;
21741;SDS011;11033;47.490;11.116;2023-05-10T15:10:48;12.02;;;4.30;;
21741;SDS011;11033;47.490;11.116;2023-05-10T15:13:13;7.67;;;4.20;;